createdAt,value
2018-02-13T00:00:41.599Z,81.83
2018-02-13T00:03:09.012Z,81.65
2018-02-13T00:05:36.408Z,81.14
2018-02-13T00:08:03.824Z,80.83
2018-02-13T00:10:31.224Z,81.16
2018-02-13T00:12:58.631Z,80.70
2018-02-13T00:15:26.037Z,80.40
2018-02-13T00:17:53.478Z,80.81
2018-02-13T00:20:20.882Z,81.00
2018-02-13T00:22:50.409Z,80.53
2018-02-13T00:25:17.820Z,80.18
2018-02-13T00:27:45.517Z,79.94
2018-02-13T00:30:12.917Z,79.90
2018-02-13T00:32:40.328Z,79.61
2018-02-13T00:35:07.730Z,79.33
2018-02-13T00:37:35.133Z,79.82
2018-02-13T00:40:02.558Z,79.93
2018-02-13T00:42:29.952Z,80.21
2018-02-13T00:44:57.364Z,80.52
2018-02-13T00:47:24.779Z,80.36
2018-02-13T00:49:52.181Z,80.48
2018-02-13T00:52:19.590Z,80.78
2018-02-13T00:54:47.000Z,80.89
2018-02-13T00:57:14.405Z,81.00
2018-02-13T00:59:41.817Z,81.16
2018-02-13T01:02:09.230Z,81.37
2018-02-13T01:04:36.635Z,81.01
2018-02-13T01:07:04.040Z,80.67
2018-02-13T01:09:31.464Z,80.59
2018-02-13T01:11:58.864Z,81.01
2018-02-13T01:14:26.683Z,80.75
2018-02-13T01:16:54.093Z,80.79
2018-02-13T01:19:21.504Z,81.20
2018-02-13T01:21:48.917Z,81.58
2018-02-13T01:24:16.313Z,81.17
2018-02-13T01:26:43.729Z,81.40
2018-02-13T01:29:11.140Z,81.69
2018-02-13T01:31:38.548Z,82.01
2018-02-13T01:34:05.962Z,82.05
2018-02-13T01:36:33.373Z,82.36
2018-02-13T01:39:00.781Z,82.11
2018-02-13T01:41:28.179Z,82.73
2018-02-13T01:43:55.585Z,83.44
2018-02-13T01:46:23.001Z,83.27
2018-02-13T01:48:50.404Z,82.48
2018-02-13T01:51:17.812Z,82.17
2018-02-13T01:53:45.224Z,82.49
2018-02-13T01:56:12.627Z,82.78
2018-02-13T01:58:40.037Z,82.91
2018-02-13T02:01:07.456Z,82.32
2018-02-13T02:03:34.853Z,82.66
2018-02-13T02:06:02.264Z,82.89
2018-02-13T02:08:29.667Z,82.53
2018-02-13T02:10:57.081Z,82.64
2018-02-13T02:13:24.487Z,82.97
2018-02-13T02:15:52.943Z,83.49
2018-02-13T02:18:20.342Z,83.27
2018-02-13T02:20:47.748Z,83.35
2018-02-13T02:23:15.158Z,83.47
2018-02-13T02:25:42.563Z,83.32
2018-02-13T02:28:09.980Z,83.51
2018-02-13T02:30:37.369Z,83.41
2018-02-13T02:33:04.802Z,83.46
2018-02-13T02:35:32.201Z,83.51
2018-02-13T02:37:59.610Z,83.27
2018-02-13T02:40:27.009Z,83.79
2018-02-13T02:43:06.161Z,83.76
2018-02-13T02:45:33.566Z,84.13
2018-02-13T02:48:01.012Z,84.33
2018-02-13T02:50:28.378Z,84.35
2018-02-13T02:52:55.788Z,84.33
2018-02-13T02:55:23.921Z,84.16
2018-02-13T02:57:51.324Z,83.94
2018-02-13T03:00:18.734Z,83.57
2018-02-13T03:02:46.144Z,83.42
2018-02-13T03:05:13.549Z,83.75
2018-02-13T03:07:40.960Z,84.79
2018-02-13T03:10:08.356Z,84.84
2018-02-13T03:12:35.778Z,84.50
2018-02-13T03:15:03.177Z,83.66
2018-02-13T03:17:30.591Z,83.22
2018-02-13T03:19:57.984Z,83.08
2018-02-13T03:22:25.385Z,82.67
2018-02-13T03:24:52.798Z,82.52
2018-02-13T03:27:20.238Z,82.22
2018-02-13T03:29:47.602Z,82.13
2018-02-13T03:32:15.005Z,81.77
2018-02-13T03:34:42.428Z,82.09
2018-02-13T03:37:09.828Z,82.49
2018-02-13T03:39:37.241Z,82.65
2018-02-13T03:42:04.661Z,82.53
2018-02-13T03:44:32.070Z,82.54
2018-02-13T03:46:59.473Z,82.75
2018-02-13T03:49:26.882Z,82.98
2018-02-13T03:51:54.292Z,83.12
2018-02-13T03:54:21.712Z,83.03
2018-02-13T03:56:49.117Z,82.65
2018-02-13T03:59:16.529Z,82.29
2018-02-13T04:01:43.925Z,82.27
2018-02-13T04:04:11.350Z,82.38
2018-02-13T04:06:38.748Z,82.26
2018-02-13T04:09:06.155Z,82.03
2018-02-13T04:11:33.561Z,82.05
2018-02-13T04:14:00.976Z,82.18
2018-02-13T04:16:28.380Z,82.28
2018-02-13T04:18:56.466Z,81.97
2018-02-13T04:21:23.878Z,81.91
2018-02-13T04:23:51.317Z,81.86
2018-02-13T04:26:18.712Z,82.57
2018-02-13T04:28:46.120Z,81.99
2018-02-13T04:31:13.539Z,81.58
2018-02-13T04:33:40.936Z,81.47
2018-02-13T04:36:09.046Z,81.54
2018-02-13T04:38:36.449Z,81.37
2018-02-13T04:41:03.856Z,81.19
2018-02-13T04:43:31.273Z,81.12
2018-02-13T04:45:58.689Z,81.30
2018-02-13T04:48:26.097Z,82.05
2018-02-13T04:50:53.513Z,82.23
2018-02-13T04:53:20.922Z,81.79
2018-02-13T04:55:48.336Z,82.56
2018-02-13T04:58:15.748Z,82.50
2018-02-13T05:00:43.169Z,82.26
2018-02-13T05:03:10.572Z,83.51
2018-02-13T05:05:38.012Z,84.14
2018-02-13T05:08:05.379Z,83.34
2018-02-13T05:10:32.808Z,82.79
2018-02-13T05:13:00.197Z,82.15
2018-02-13T05:15:27.880Z,81.47
2018-02-13T05:17:55.289Z,81.29
2018-02-13T05:20:22.701Z,81.57
2018-02-13T05:22:50.110Z,81.62
2018-02-13T05:25:17.524Z,82.29
2018-02-13T05:27:44.956Z,82.47
2018-02-13T05:30:12.376Z,81.82
2018-02-13T05:32:39.779Z,81.54
2018-02-13T05:35:07.889Z,81.27
2018-02-13T05:37:35.375Z,81.37
2018-02-13T05:40:02.809Z,81.50
2018-02-13T05:42:30.200Z,82.11
2018-02-13T05:44:58.605Z,82.82
2018-02-13T05:47:26.017Z,83.19
2018-02-13T05:49:54.189Z,82.96
2018-02-13T05:52:21.604Z,82.07
2018-02-13T05:54:49.000Z,81.32
2018-02-13T05:57:16.416Z,80.96
2018-02-13T05:59:43.816Z,80.62
2018-02-13T06:02:11.228Z,80.71
2018-02-13T06:04:38.639Z,80.86
2018-02-13T06:07:06.053Z,80.71
2018-02-13T06:09:33.456Z,80.94
2018-02-13T06:12:00.874Z,81.09
2018-02-13T06:14:28.275Z,81.17
2018-02-13T06:16:55.696Z,80.86
2018-02-13T06:19:23.098Z,80.84
2018-02-13T06:21:50.508Z,80.40
2018-02-13T06:24:17.909Z,80.87
2018-02-13T06:26:45.328Z,80.71
2018-02-13T06:29:13.192Z,79.71
2018-02-13T06:31:40.605Z,79.70
2018-02-13T06:34:08.014Z,79.46
2018-02-13T06:36:35.420Z,79.36
2018-02-13T06:39:02.817Z,79.08
2018-02-13T06:41:30.244Z,79.15
2018-02-13T06:43:57.649Z,79.62
2018-02-13T06:46:25.048Z,79.76
2018-02-13T06:48:52.457Z,79.61
2018-02-13T06:51:19.860Z,79.94
2018-02-13T06:53:47.272Z,79.42
2018-02-13T06:56:14.672Z,79.39
2018-02-13T06:58:42.084Z,79.07
2018-02-13T07:01:09.493Z,79.65
2018-02-13T07:03:36.908Z,80.33
2018-02-13T07:06:04.304Z,80.67
2018-02-13T07:08:31.721Z,80.13
2018-02-13T07:10:59.121Z,80.94
2018-02-13T07:13:26.546Z,81.97
2018-02-13T07:15:53.952Z,82.12
2018-02-13T07:18:21.347Z,82.02
2018-02-13T07:20:49.522Z,80.68
2018-02-13T07:23:16.933Z,81.52
2018-02-13T07:25:44.340Z,79.63
2018-02-13T07:28:11.763Z,78.69
2018-02-13T07:30:39.157Z,76.85
2018-02-13T07:33:06.572Z,76.69
2018-02-13T07:35:33.980Z,76.51
2018-02-13T07:38:01.969Z,74.10
2018-02-13T07:40:29.376Z,74.64
2018-02-13T07:42:57.409Z,72.20
2018-02-13T07:45:24.799Z,72.58
2018-02-13T07:47:52.197Z,72.08
2018-02-13T07:50:19.609Z,71.66
2018-02-13T07:52:47.008Z,71.24
2018-02-13T07:55:14.412Z,69.98
2018-02-13T07:57:41.809Z,70.48
2018-02-13T08:00:09.225Z,69.90
2018-02-13T08:02:36.625Z,71.47
2018-02-13T08:05:04.029Z,73.12
2018-02-13T08:07:31.438Z,72.48
2018-02-13T08:09:58.857Z,75.06
2018-02-13T08:12:26.836Z,72.91
2018-02-13T08:14:54.244Z,74.99
2018-02-13T08:17:21.639Z,73.30
2018-02-13T08:19:49.048Z,73.98
2018-02-13T08:22:16.445Z,73.59
2018-02-13T08:24:43.847Z,74.22
2018-02-13T08:27:11.254Z,74.29
2018-02-13T08:29:38.679Z,74.41
2018-02-13T08:32:06.080Z,76.28
2018-02-13T08:34:33.700Z,73.74
2018-02-13T08:37:01.101Z,73.32
2018-02-13T08:39:28.514Z,73.11
2018-02-13T08:41:55.912Z,71.84
2018-02-13T08:44:23.316Z,72.26
2018-02-13T08:46:50.724Z,70.89
2018-02-13T08:49:18.131Z,70.54
2018-02-13T08:51:45.536Z,69.88
2018-02-13T08:54:12.950Z,69.75
2018-02-13T08:56:40.349Z,70.89
2018-02-13T08:59:07.748Z,69.33
2018-02-13T09:01:35.161Z,70.24
2018-02-13T09:04:02.565Z,69.50
2018-02-13T09:06:29.980Z,68.17
2018-02-13T09:08:57.372Z,70.66
2018-02-13T09:11:24.782Z,67.98
2018-02-13T09:13:52.180Z,68.08
2018-02-13T09:16:19.588Z,65.74
2018-02-13T09:18:46.976Z,66.20
2018-02-13T09:21:14.384Z,64.36
2018-02-13T09:23:41.780Z,64.15
2018-02-13T09:26:09.187Z,62.36
2018-02-13T09:28:36.597Z,65.45
2018-02-13T09:31:04.003Z,61.91
2018-02-13T09:33:31.396Z,59.64
2018-02-13T09:35:58.800Z,60.25
2018-02-13T09:38:26.200Z,59.87
2018-02-13T09:40:53.601Z,59.09
2018-02-13T09:43:20.999Z,59.74
2018-02-13T09:45:48.457Z,58.67
2018-02-13T09:48:15.805Z,55.43
2018-02-13T09:50:43.211Z,58.36
2018-02-13T09:53:10.610Z,57.28
2018-02-13T09:55:38.012Z,54.49
2018-02-13T09:58:05.413Z,55.98
2018-02-13T10:00:32.846Z,55.99
2018-02-13T10:03:00.244Z,53.71
2018-02-13T10:05:27.639Z,54.20
2018-02-13T10:07:55.044Z,56.06
2018-02-13T10:10:22.444Z,53.50
2018-02-13T10:12:49.852Z,54.74
2018-02-13T10:15:17.248Z,53.21
2018-02-13T10:17:44.665Z,50.19
2018-02-13T10:20:12.064Z,51.50
2018-02-13T10:22:39.464Z,52.84
2018-02-13T10:25:07.547Z,53.97
2018-02-13T10:27:34.953Z,52.79
2018-02-13T10:30:02.353Z,51.92
2018-02-13T10:32:29.765Z,50.98
2018-02-13T10:34:57.160Z,49.46
2018-02-13T10:37:24.580Z,50.69
2018-02-13T10:39:51.980Z,47.04
2018-02-13T10:42:19.396Z,49.44
2018-02-13T10:44:46.789Z,51.85
2018-02-13T10:47:14.200Z,48.28
2018-02-13T10:49:41.604Z,48.02
2018-02-13T10:52:09.016Z,50.87
2018-02-13T10:54:36.416Z,47.65
2018-02-13T10:57:03.830Z,49.00
2018-02-13T10:59:32.544Z,43.97
2018-02-13T11:02:05.588Z,46.31
2018-02-13T11:04:32.991Z,43.66
2018-02-13T11:07:00.401Z,44.41
2018-02-13T11:09:27.816Z,43.03
2018-02-13T11:11:55.216Z,43.72
2018-02-13T11:14:22.617Z,43.98
2018-02-13T11:16:50.794Z,44.83
2018-02-13T11:19:19.113Z,43.65
2018-02-13T11:21:46.512Z,45.00
2018-02-13T11:24:13.918Z,44.13
2018-02-13T11:26:41.316Z,43.01
2018-02-13T11:29:09.827Z,44.93
2018-02-13T11:31:37.222Z,42.41
2018-02-13T11:34:04.634Z,41.90
2018-02-13T11:36:32.024Z,42.60
2018-02-13T11:38:59.436Z,44.93
2018-02-13T11:41:26.831Z,43.51
2018-02-13T11:43:54.245Z,41.46
2018-02-13T11:46:21.644Z,43.26
2018-02-13T11:48:49.054Z,42.62
2018-02-13T11:51:16.449Z,42.76
2018-02-13T11:53:43.865Z,42.46
2018-02-13T11:56:11.252Z,42.15
2018-02-13T11:58:38.661Z,42.98
2018-02-13T12:01:06.059Z,46.11
2018-02-13T12:03:33.466Z,43.01
2018-02-13T12:06:00.877Z,43.89
2018-02-13T12:08:28.285Z,43.08
2018-02-13T12:10:55.681Z,42.10
2018-02-13T12:13:23.110Z,41.92
2018-02-13T12:15:50.514Z,44.18
2018-02-13T12:18:17.904Z,42.83
2018-02-13T12:20:45.354Z,43.54
2018-02-13T12:23:13.045Z,44.06
2018-02-13T12:25:42.270Z,40.44
2018-02-13T12:28:09.659Z,38.68
2018-02-13T12:30:37.067Z,39.50
2018-02-13T12:33:04.476Z,38.79
2018-02-13T12:35:31.883Z,40.07
2018-02-13T12:37:59.285Z,38.96
2018-02-13T12:40:26.696Z,40.76
2018-02-13T12:42:54.099Z,42.02
2018-02-13T12:45:21.497Z,40.83
2018-02-13T12:47:48.897Z,41.18
2018-02-13T12:50:16.310Z,42.26
2018-02-13T12:52:43.715Z,40.47
2018-02-13T12:55:11.114Z,40.88
2018-02-13T12:57:38.505Z,41.05
2018-02-13T13:00:05.907Z,41.76
2018-02-13T13:02:33.319Z,40.50
2018-02-13T13:05:00.722Z,40.58
2018-02-13T13:07:28.120Z,39.06
2018-02-13T13:09:55.538Z,40.61
2018-02-13T13:12:22.935Z,38.68
2018-02-13T13:14:50.325Z,38.36
2018-02-13T13:17:17.729Z,39.38
2018-02-13T13:19:45.121Z,41.97
2018-02-13T13:22:12.542Z,39.60
2018-02-13T13:24:39.937Z,39.65
2018-02-13T13:27:07.340Z,37.64
2018-02-13T13:29:34.743Z,38.62
2018-02-13T13:32:02.145Z,38.61
2018-02-13T13:34:29.538Z,38.77
2018-02-13T13:36:56.944Z,38.06
2018-02-13T13:39:24.334Z,39.63
2018-02-13T13:41:51.798Z,38.43
2018-02-13T13:44:19.189Z,37.92
2018-02-13T13:46:46.597Z,39.54
2018-02-13T13:49:13.990Z,38.59
2018-02-13T13:51:41.392Z,37.76
2018-02-13T13:54:08.792Z,37.75
2018-02-13T13:56:36.195Z,39.75
2018-02-13T13:59:03.584Z,38.70
2018-02-13T14:01:30.989Z,37.37
2018-02-13T14:03:58.388Z,38.59
2018-02-13T14:06:25.800Z,36.98
2018-02-13T14:08:53.188Z,37.33
2018-02-13T14:11:20.598Z,36.90
2018-02-13T14:13:48.696Z,39.63
2018-02-13T14:16:16.100Z,40.23
2018-02-13T14:18:43.951Z,37.39
2018-02-13T14:21:11.377Z,39.39
2018-02-13T14:23:38.769Z,39.94
2018-02-13T14:26:06.171Z,40.36
2018-02-13T14:28:33.577Z,39.80
2018-02-13T14:31:00.969Z,39.79
2018-02-13T14:33:28.371Z,39.78
2018-02-13T14:35:56.098Z,39.44
2018-02-13T14:38:23.494Z,38.96
2018-02-13T14:40:50.897Z,39.84
2018-02-13T14:43:18.296Z,42.11
2018-02-13T14:45:45.701Z,41.17
2018-02-13T14:48:13.452Z,40.72
2018-02-13T14:50:40.859Z,41.24
2018-02-13T14:53:08.260Z,42.28
2018-02-13T14:55:35.685Z,41.58
2018-02-13T14:58:03.073Z,40.85
2018-02-13T15:00:30.481Z,40.14
2018-02-13T15:02:57.870Z,41.57
2018-02-13T15:05:25.293Z,43.06
2018-02-13T15:07:52.669Z,40.54
2018-02-13T15:10:20.072Z,43.22
2018-02-13T15:12:47.481Z,40.17
2018-02-13T15:15:15.196Z,42.11
2018-02-13T15:17:52.497Z,40.51
2018-02-13T15:20:19.887Z,40.72
2018-02-13T15:22:47.288Z,39.98
2018-02-13T15:25:14.683Z,41.31
2018-02-13T15:27:42.073Z,41.01
2018-02-13T15:30:09.482Z,41.80
2018-02-13T15:32:36.872Z,41.69
2018-02-13T15:35:04.281Z,42.12
2018-02-13T15:37:31.676Z,40.57
2018-02-13T15:39:59.088Z,41.28
2018-02-13T15:42:26.480Z,42.24
2018-02-13T15:44:54.101Z,40.05
2018-02-13T15:47:21.498Z,41.02
2018-02-13T15:49:48.900Z,44.40
2018-02-13T15:52:16.305Z,41.78
2018-02-13T15:54:43.700Z,41.87
2018-02-13T15:57:11.105Z,42.52
2018-02-13T15:59:38.509Z,43.57
2018-02-13T16:02:05.908Z,43.80
2018-02-13T16:04:33.312Z,43.81
2018-02-13T16:07:00.713Z,42.74
2018-02-13T16:09:28.112Z,43.93
2018-02-13T16:11:55.513Z,42.48
2018-02-13T16:14:23.760Z,44.17
2018-02-13T16:16:51.213Z,44.39
2018-02-13T16:19:18.553Z,44.94
2018-02-13T16:21:45.964Z,45.53
2018-02-13T16:24:13.373Z,47.73
2018-02-13T16:26:40.774Z,48.53
2018-02-13T16:29:08.172Z,50.60
2018-02-13T16:31:35.577Z,50.33
2018-02-13T16:34:03.030Z,51.42
2018-02-13T16:36:30.387Z,52.21
2018-02-13T16:38:57.780Z,53.89
2018-02-13T16:41:25.184Z,53.25
2018-02-13T16:43:52.643Z,54.22
2018-02-13T16:46:19.983Z,55.41
2018-02-13T16:48:47.383Z,55.06
2018-02-13T16:51:14.788Z,54.36
2018-02-13T16:53:42.183Z,56.74
2018-02-13T16:56:09.591Z,55.54
2018-02-13T16:58:36.992Z,56.86
2018-02-13T17:01:04.400Z,57.05
2018-02-13T17:03:31.784Z,57.95
2018-02-13T17:05:59.187Z,58.13
2018-02-13T17:08:26.575Z,58.04
2018-02-13T17:10:53.983Z,58.79
2018-02-13T17:13:21.380Z,59.56
2018-02-13T17:15:48.798Z,59.64
2018-02-13T17:18:16.189Z,59.57
2018-02-13T17:20:43.604Z,59.08
2018-02-13T17:23:11.001Z,59.41
2018-02-13T17:25:38.409Z,60.13
2018-02-13T17:28:05.807Z,62.17
2018-02-13T17:30:33.232Z,60.64
2018-02-13T17:33:00.621Z,60.98
2018-02-13T17:35:28.019Z,61.67
2018-02-13T17:37:56.104Z,61.30
2018-02-13T17:40:23.505Z,61.21
2018-02-13T17:42:50.903Z,60.62
2018-02-13T17:45:18.292Z,60.89
2018-02-13T17:47:45.701Z,61.22
2018-02-13T17:50:13.101Z,61.51
2018-02-13T17:52:41.408Z,61.75
2018-02-13T17:55:09.591Z,61.83
2018-02-13T17:57:36.991Z,61.84
2018-02-13T18:00:04.384Z,61.89
2018-02-13T18:02:31.787Z,61.80
2018-02-13T18:04:59.189Z,62.24
2018-02-13T18:07:27.024Z,61.53
2018-02-13T18:09:54.915Z,61.27
2018-02-13T18:12:22.318Z,61.32
2018-02-13T18:14:49.717Z,61.38
2018-02-13T18:17:17.756Z,61.49
2018-02-13T18:19:45.144Z,61.67
2018-02-13T18:22:12.567Z,61.60
2018-02-13T18:24:39.974Z,62.70
2018-02-13T18:27:07.372Z,61.59
2018-02-13T18:29:34.769Z,62.13
2018-02-13T18:32:02.184Z,61.51
2018-02-13T18:34:29.580Z,61.16
2018-02-13T18:36:57.978Z,61.17
2018-02-13T18:39:25.391Z,61.42
2018-02-13T18:41:52.777Z,61.88
2018-02-13T18:44:20.174Z,61.90
2018-02-13T18:46:47.572Z,62.49
2018-02-13T18:49:14.971Z,62.10
2018-02-13T18:51:42.377Z,62.32
2018-02-13T18:54:09.788Z,62.32
2018-02-13T18:56:37.180Z,62.28
2018-02-13T18:59:04.585Z,62.52
2018-02-13T19:01:31.981Z,62.90
2018-02-13T19:03:59.384Z,63.06
2018-02-13T19:06:26.785Z,63.13
2018-02-13T19:08:54.836Z,62.92
2018-02-13T19:11:22.225Z,62.77
2018-02-13T19:13:49.641Z,63.27
2018-02-13T19:16:17.035Z,63.54
2018-02-13T19:18:44.445Z,63.75
2018-02-13T19:21:11.853Z,63.35
2018-02-13T19:23:39.261Z,63.27
2018-02-13T19:26:06.660Z,63.25
2018-02-13T19:28:34.074Z,63.37
2018-02-13T19:31:01.478Z,63.44
2018-02-13T19:33:29.379Z,63.20
2018-02-13T19:35:56.783Z,63.63
2018-02-13T19:38:24.200Z,63.83
2018-02-13T19:40:51.601Z,63.87
2018-02-13T19:43:19.019Z,64.15
2018-02-13T19:45:46.425Z,64.34
2018-02-13T19:48:13.828Z,64.30
2018-02-13T19:50:41.242Z,64.47
2018-02-13T19:53:08.643Z,64.59
2018-02-13T19:55:36.055Z,64.64
2018-02-13T19:58:03.456Z,64.10
2018-02-13T20:00:30.864Z,63.95
2018-02-13T20:02:58.263Z,64.26
2018-02-13T20:05:25.677Z,64.46
2018-02-13T20:07:53.083Z,64.40
2018-02-13T20:10:20.498Z,64.60
2018-02-13T20:12:47.898Z,64.14
2018-02-13T20:15:15.304Z,64.73
2018-02-13T20:17:42.705Z,64.96
2018-02-13T20:20:10.116Z,65.53
2018-02-13T20:22:37.524Z,66.17
2018-02-13T20:25:04.935Z,65.42
2018-02-13T20:27:32.332Z,65.49
2018-02-13T20:29:59.743Z,65.73
2018-02-13T20:32:27.150Z,66.14
2018-02-13T20:34:54.869Z,66.50
2018-02-13T20:37:22.276Z,67.10
2018-02-13T20:39:49.681Z,67.48
2018-02-13T20:42:17.076Z,67.68
2018-02-13T20:44:44.477Z,67.96
2018-02-13T20:47:11.885Z,68.39
2018-02-13T20:49:39.293Z,68.35
2018-02-13T20:52:06.704Z,68.08
2018-02-13T20:54:34.121Z,69.13
2018-02-13T20:57:01.831Z,69.00
2018-02-13T20:59:29.249Z,68.57
2018-02-13T21:01:56.648Z,68.68
2018-02-13T21:04:24.049Z,68.54
2018-02-13T21:06:51.460Z,68.90
2018-02-13T21:09:18.871Z,69.53
2018-02-13T21:11:46.279Z,69.72
2018-02-13T21:14:13.683Z,70.28
2018-02-13T21:16:41.101Z,70.47
2018-02-13T21:19:08.518Z,71.18
2018-02-13T21:21:36.155Z,71.40
2018-02-13T21:24:03.564Z,71.97
2018-02-13T21:26:30.980Z,71.45
2018-02-13T21:28:58.412Z,71.78
2018-02-13T21:31:27.029Z,72.21
2018-02-13T21:33:54.440Z,72.44
2018-02-13T21:36:21.854Z,72.89
2018-02-13T21:38:49.265Z,72.37
2018-02-13T21:41:16.693Z,72.27
2018-02-13T21:43:44.096Z,71.94
2018-02-13T21:46:11.509Z,73.50
2018-02-13T21:48:38.908Z,74.26
2018-02-13T21:51:06.327Z,73.41
2018-02-13T21:53:34.269Z,73.25
2018-02-13T21:56:01.687Z,73.32
2018-02-13T21:58:29.100Z,72.70
2018-02-13T22:02:38.978Z,73.50
2018-02-13T22:05:06.401Z,74.85
2018-02-13T22:07:34.115Z,73.00
2018-02-13T22:10:01.538Z,72.44
2018-02-13T22:12:28.988Z,72.54
2018-02-13T22:14:56.472Z,73.41
2018-02-13T22:17:23.905Z,72.53
2018-02-13T22:19:51.325Z,73.27
2018-02-13T22:22:19.190Z,73.08
2018-02-13T22:24:46.613Z,73.79
2018-02-13T22:27:14.060Z,73.39
2018-02-13T22:29:41.465Z,73.10
2018-02-13T22:32:08.914Z,72.82
2018-02-13T22:34:36.322Z,73.26
2018-02-13T22:37:03.750Z,73.49
2018-02-13T22:39:31.187Z,73.26
2018-02-13T22:41:58.604Z,72.67
2018-02-13T22:44:26.076Z,72.40
2018-02-13T22:46:53.533Z,72.17
2018-02-13T22:49:20.961Z,72.38
2018-02-13T22:51:48.394Z,72.84
2018-02-13T22:54:15.846Z,73.74
2018-02-13T22:56:43.257Z,74.33
2018-02-13T22:59:10.681Z,74.54
2018-02-13T23:01:38.147Z,75.65
2018-02-13T23:04:06.029Z,76.10
2018-02-13T23:06:33.441Z,75.93
2018-02-13T23:09:00.868Z,75.69
2018-02-13T23:11:28.291Z,75.19
2018-02-13T23:13:55.715Z,74.80
2018-02-13T23:16:23.148Z,74.85
2018-02-13T23:18:50.575Z,74.76
2018-02-13T23:21:17.985Z,74.43
2018-02-13T23:23:45.417Z,73.58
2018-02-13T23:26:12.868Z,73.16
2018-02-13T23:28:40.280Z,72.58
2018-02-13T23:31:07.737Z,72.17
2018-02-13T23:33:35.183Z,72.54
2018-02-13T23:36:02.600Z,72.79
2018-02-13T23:38:30.029Z,73.58
2018-02-13T23:40:57.444Z,74.08
2018-02-13T23:43:24.866Z,75.29
2018-02-13T23:45:52.291Z,75.66
2018-02-13T23:48:19.736Z,76.18
2018-02-13T23:50:47.166Z,75.96
2018-02-13T23:53:14.577Z,75.27
2018-02-13T23:55:42.005Z,74.69
2018-02-13T23:58:09.466Z,75.41
